createdAt,value
2023-05-19T00:00:13.116Z,89.69
2023-05-19T00:01:13.088Z,89.28
2023-05-19T00:02:13.104Z,88.96
2023-05-19T00:03:13.241Z,89.69
2023-05-19T00:04:13.056Z,90.09
2023-05-19T00:05:13.036Z,89.58
2023-05-19T00:06:13.149Z,89.58
2023-05-19T00:07:13.014Z,89.79
2023-05-19T00:08:12.996Z,89.69
2023-05-19T00:09:13.009Z,89.38
2023-05-19T00:10:12.971Z,89.07
2023-05-19T00:11:12.953Z,88.96
2023-05-19T00:12:12.951Z,89.38
2023-05-19T00:13:12.967Z,90.00
2023-05-19T00:14:12.935Z,90.30
2023-05-19T00:15:12.905Z,89.89
2023-05-19T00:16:12.966Z,89.58
2023-05-19T00:17:12.877Z,89.89
2023-05-19T00:18:12.906Z,90.30
2023-05-19T00:19:12.907Z,89.89
2023-05-19T00:20:12.829Z,89.58
2023-05-19T00:21:12.819Z,89.69
2023-05-19T00:22:12.809Z,89.79
2023-05-19T00:23:12.812Z,89.69
2023-05-19T00:24:12.775Z,89.69
2023-05-19T00:25:12.773Z,89.42
2023-05-19T00:26:12.752Z,89.83
2023-05-19T00:27:12.758Z,90.14
2023-05-19T00:28:12.760Z,89.94
2023-05-19T00:29:12.725Z,89.83
2023-05-19T00:30:12.716Z,90.03
2023-05-19T00:31:12.696Z,89.62
2023-05-19T00:32:12.716Z,90.14
2023-05-19T00:33:12.737Z,90.66
2023-05-19T00:34:12.652Z,90.66
2023-05-19T00:35:12.641Z,90.66
2023-05-19T00:36:12.622Z,90.45
2023-05-19T00:37:12.640Z,89.94
2023-05-19T00:38:12.592Z,90.14
2023-05-19T00:39:12.587Z,90.03
2023-05-19T00:40:12.560Z,89.83
2023-05-19T00:41:12.580Z,90.45
2023-05-19T00:42:12.553Z,90.03
2023-05-19T00:43:12.543Z,90.03
2023-05-19T00:44:12.579Z,90.34
2023-05-19T00:45:12.520Z,90.34
2023-05-19T00:46:12.522Z,90.03
2023-05-19T00:47:12.495Z,90.55
2023-05-19T00:48:12.504Z,90.34
2023-05-19T00:49:12.452Z,90.34
2023-05-19T00:50:12.465Z,90.34
2023-05-19T00:51:12.441Z,90.14
2023-05-19T00:52:12.415Z,90.09
2023-05-19T00:53:12.393Z,90.14
2023-05-19T00:54:12.395Z,90.30
2023-05-19T00:55:12.371Z,90.09
2023-05-19T00:56:12.370Z,89.89
2023-05-19T00:57:12.347Z,90.00
2023-05-19T00:58:12.323Z,90.24
2023-05-19T00:59:12.322Z,90.14
2023-05-19T01:00:12.314Z,90.14
2023-05-19T01:01:12.524Z,90.86
2023-05-19T01:02:12.274Z,90.75
2023-05-19T01:03:19.952Z,90.55
2023-05-19T01:04:19.757Z,90.92
2023-05-19T01:05:12.252Z,91.13
2023-05-19T01:06:12.408Z,90.72
2023-05-19T01:07:12.219Z,90.51
2023-05-19T01:08:12.200Z,90.41
2023-05-19T01:09:12.265Z,90.72
2023-05-19T01:10:12.187Z,90.81
2023-05-19T01:11:12.165Z,90.81
2023-05-19T01:12:12.162Z,90.92
2023-05-19T01:13:12.142Z,90.86
2023-05-19T01:14:12.140Z,90.86
2023-05-19T01:15:12.106Z,91.17
2023-05-19T01:16:12.152Z,91.27
2023-05-19T01:17:19.578Z,91.38
2023-05-19T01:18:19.574Z,91.33
2023-05-19T01:19:20.877Z,91.33
2023-05-19T01:20:24.065Z,91.02
2023-05-19T01:21:12.025Z,91.33
2023-05-19T01:22:12.010Z,91.23
2023-05-19T01:23:11.999Z,91.02
2023-05-19T01:24:12.008Z,91.33
2023-05-19T01:25:11.979Z,91.47
2023-05-19T01:26:11.959Z,91.23
2023-05-19T01:27:11.950Z,91.13
2023-05-19T01:28:11.948Z,91.13
2023-05-19T01:29:11.939Z,91.17
2023-05-19T01:30:11.905Z,90.75
2023-05-19T01:31:11.912Z,91.27
2023-05-19T01:32:11.987Z,91.27
2023-05-19T01:33:11.884Z,91.38
2023-05-19T01:34:11.855Z,91.58
2023-05-19T01:35:11.843Z,91.89
2023-05-19T01:36:11.836Z,91.99
2023-05-19T01:37:11.815Z,91.89
2023-05-19T01:38:11.824Z,91.99
2023-05-19T01:39:11.793Z,91.99
2023-05-19T01:40:11.777Z,91.68
2023-05-19T01:41:11.755Z,92.05
2023-05-19T01:42:11.752Z,91.99
2023-05-19T01:43:11.763Z,91.33
2023-05-19T01:44:11.719Z,91.85
2023-05-19T01:45:11.712Z,91.64
2023-05-19T01:46:11.761Z,92.05
2023-05-19T01:47:11.706Z,91.85
2023-05-19T01:48:11.743Z,92.16
2023-05-19T01:49:11.657Z,91.95
2023-05-19T01:50:11.663Z,91.74
2023-05-19T01:51:11.629Z,91.74
2023-05-19T01:52:11.637Z,91.95
2023-05-19T01:53:11.601Z,91.74
2023-05-19T01:54:11.585Z,91.85
2023-05-19T01:55:11.586Z,91.74
2023-05-19T01:56:11.562Z,91.74
2023-05-19T01:57:11.593Z,92.05
2023-05-19T01:58:11.539Z,91.74
2023-05-19T01:59:11.528Z,92.16
2023-05-19T02:00:11.525Z,92.16
2023-05-19T02:01:11.543Z,91.95
2023-05-19T02:02:11.508Z,92.16
2023-05-19T02:03:11.482Z,91.95
2023-05-19T02:04:11.495Z,91.85
2023-05-19T02:05:11.453Z,91.74
2023-05-19T02:06:11.448Z,92.25
2023-05-19T02:07:11.431Z,92.57
2023-05-19T02:08:11.411Z,92.57
2023-05-19T02:09:11.391Z,92.36
2023-05-19T02:10:11.401Z,92.57
2023-05-19T02:11:11.395Z,92.46
2023-05-19T02:12:11.358Z,92.05
2023-05-19T02:13:11.346Z,91.95
2023-05-19T02:14:11.327Z,92.05
2023-05-19T02:15:11.323Z,92.16
2023-05-19T02:16:11.354Z,92.36
2023-05-19T02:17:11.305Z,92.87
2023-05-19T02:18:11.264Z,92.87
2023-05-19T02:19:18.836Z,92.87
2023-05-19T02:20:11.259Z,92.97
2023-05-19T02:21:11.248Z,92.57
2023-05-19T02:22:11.225Z,92.46
2023-05-19T02:23:11.199Z,92.46
2023-05-19T02:24:11.204Z,92.05
2023-05-19T02:25:11.196Z,91.85
2023-05-19T02:26:11.177Z,91.64
2023-05-19T02:27:11.147Z,91.74
2023-05-19T02:28:11.165Z,92.05
2023-05-19T02:29:11.127Z,92.50
2023-05-19T02:30:11.129Z,92.71
2023-05-19T02:31:11.092Z,92.92
2023-05-19T02:32:11.217Z,93.64
2023-05-19T02:33:11.130Z,93.95
2023-05-19T02:34:11.082Z,93.43
2023-05-19T02:35:11.055Z,93.33
2023-05-19T02:36:11.043Z,93.12
2023-05-19T02:37:12.020Z,92.92
2023-05-19T02:38:11.006Z,93.02
2023-05-19T02:39:11.026Z,93.23
2023-05-19T02:40:11.002Z,93.08
2023-05-19T02:41:10.960Z,92.97
2023-05-19T02:42:10.949Z,92.57
2023-05-19T02:43:10.934Z,92.67
2023-05-19T02:44:10.930Z,92.77
2023-05-19T02:45:10.910Z,92.61
2023-05-19T02:46:10.933Z,92.71
2023-05-19T02:47:10.880Z,93.12
2023-05-19T02:48:10.999Z,92.82
2023-05-19T02:49:10.870Z,92.61
2023-05-19T02:50:10.844Z,92.50
2023-05-19T02:51:10.835Z,92.50
2023-05-19T02:52:10.824Z,93.16
2023-05-19T02:53:10.812Z,93.48
2023-05-19T02:54:10.803Z,93.48
2023-05-19T02:55:10.774Z,93.37
2023-05-19T02:56:10.766Z,93.68
2023-05-19T02:57:10.757Z,94.45
2023-05-19T02:58:10.756Z,94.34
2023-05-19T02:59:10.724Z,94.24
2023-05-19T03:00:10.715Z,93.93
2023-05-19T03:01:10.703Z,94.34
2023-05-19T03:02:10.817Z,94.65
2023-05-19T03:03:10.769Z,94.65
2023-05-19T03:04:10.691Z,94.55
2023-05-19T03:05:10.649Z,94.59
2023-05-19T03:06:10.641Z,94.80
2023-05-19T03:07:10.629Z,95.10
2023-05-19T03:08:10.609Z,95.52
2023-05-19T03:09:10.605Z,95.31
2023-05-19T03:10:10.579Z,95.00
2023-05-19T03:11:10.578Z,95.15
2023-05-19T03:12:10.578Z,95.05
2023-05-19T03:13:10.546Z,95.05
2023-05-19T03:14:10.598Z,95.05
2023-05-19T03:15:10.507Z,94.84
2023-05-19T03:16:10.544Z,94.84
2023-05-19T03:17:10.524Z,95.20
2023-05-19T03:18:10.508Z,95.81
2023-05-19T03:19:10.487Z,95.81
2023-05-19T03:20:10.453Z,95.61
2023-05-19T03:21:10.447Z,95.50
2023-05-19T03:22:10.421Z,95.50
2023-05-19T03:23:10.444Z,95.40
2023-05-19T03:24:10.409Z,95.34
2023-05-19T03:25:10.402Z,95.34
2023-05-19T03:26:10.392Z,95.34
2023-05-19T03:27:10.354Z,95.34
2023-05-19T03:28:10.348Z,95.45
2023-05-19T03:29:10.336Z,95.45
2023-05-19T03:30:10.340Z,95.45
2023-05-19T03:31:10.313Z,95.45
2023-05-19T03:32:10.317Z,95.49
2023-05-19T03:33:10.392Z,97.34
2023-05-19T03:34:17.779Z,98.49
2023-05-19T03:35:18.956Z,98.69
2023-05-19T03:36:10.241Z,98.79
2023-05-19T03:37:10.223Z,98.69
2023-05-19T03:38:10.214Z,98.49
2023-05-19T03:39:10.199Z,98.18
2023-05-19T03:40:10.203Z,98.07
2023-05-19T03:41:10.166Z,97.97
2023-05-19T03:42:10.160Z,97.76
2023-05-19T03:43:10.142Z,97.55
2023-05-19T03:44:10.150Z,97.45
2023-05-19T03:45:10.129Z,97.34
2023-05-19T03:46:10.129Z,97.34
2023-05-19T03:47:10.089Z,97.34
2023-05-19T03:48:10.149Z,97.34
2023-05-19T03:49:10.078Z,97.55
2023-05-19T03:50:10.065Z,98.18
2023-05-19T03:51:10.059Z,99.21
2023-05-19T03:52:10.058Z,99.00
2023-05-19T03:53:10.025Z,99.00
2023-05-19T03:54:10.024Z,99.00
2023-05-19T03:55:09.985Z,99.00
2023-05-19T03:56:09.979Z,99.41
2023-05-19T03:57:09.960Z,99.31
2023-05-19T03:58:09.959Z,99.10
2023-05-19T03:59:09.940Z,98.96
2023-05-19T04:00:09.938Z,98.85
2023-05-19T04:01:09.902Z,98.85
2023-05-19T04:02:09.937Z,98.75
2023-05-19T04:03:10.011Z,98.85
2023-05-19T04:04:10.020Z,98.85
2023-05-19T04:05:09.865Z,98.85
2023-05-19T04:06:09.845Z,98.85
2023-05-19T04:07:09.822Z,98.75
2023-05-19T04:08:09.834Z,99.11
2023-05-19T04:09:09.796Z,99.43
2023-05-19T04:10:09.791Z,99.73
2023-05-19T04:11:09.777Z,99.63
2023-05-19T04:12:09.781Z,99.52
2023-05-19T04:13:09.759Z,99.32
2023-05-19T04:14:09.740Z,99.27
2023-05-19T04:15:09.725Z,99.07
2023-05-19T04:16:09.737Z,99.07
2023-05-19T04:17:09.717Z,98.86
2023-05-19T04:18:09.773Z,98.71
2023-05-19T04:19:09.688Z,98.41
2023-05-19T04:20:09.652Z,98.30
2023-05-19T04:21:09.636Z,97.85
2023-05-19T04:22:09.648Z,97.85
2023-05-19T04:23:09.614Z,97.90
2023-05-19T04:24:09.603Z,97.60
2023-05-19T04:25:09.599Z,97.44
2023-05-19T04:26:09.601Z,97.14
2023-05-19T04:27:09.583Z,96.27
2023-05-19T04:28:09.552Z,96.06
2023-05-19T04:29:09.533Z,96.53
2023-05-19T04:30:09.536Z,96.08
2023-05-19T04:31:09.547Z,94.84
2023-05-19T04:32:09.507Z,94.23
2023-05-19T04:33:09.563Z,93.36
2023-05-19T04:34:09.471Z,93.26
2023-05-19T04:35:09.461Z,93.12
2023-05-19T04:36:09.465Z,91.88
2023-05-19T04:37:09.432Z,91.57
2023-05-19T04:38:09.423Z,91.74
2023-05-19T04:39:09.406Z,91.02
2023-05-19T04:40:09.432Z,91.22
2023-05-19T04:41:09.398Z,90.77
2023-05-19T04:42:09.375Z,89.84
2023-05-19T04:43:09.350Z,90.26
2023-05-19T04:44:09.350Z,90.36
2023-05-19T04:45:09.338Z,89.95
2023-05-19T04:46:10.933Z,89.60
2023-05-19T04:47:09.395Z,88.98
2023-05-19T04:48:09.289Z,89.19
2023-05-19T04:49:18.960Z,89.09
2023-05-19T04:50:18.143Z,88.57
2023-05-19T04:51:09.246Z,88.06
2023-05-19T04:52:09.237Z,88.33
2023-05-19T04:53:09.228Z,87.55
2023-05-19T04:54:09.226Z,88.68
2023-05-19T04:55:09.218Z,88.78
2023-05-19T04:56:09.184Z,88.98
2023-05-19T04:57:09.164Z,88.68
2023-05-19T04:58:09.160Z,88.17
2023-05-19T04:59:09.162Z,87.76
2023-05-19T05:00:09.141Z,87.85
2023-05-19T05:01:09.121Z,88.57
2023-05-19T05:02:09.140Z,88.78
2023-05-19T05:03:09.157Z,88.27
2023-05-19T05:04:09.154Z,89.19
2023-05-19T05:05:09.059Z,88.78
2023-05-19T05:06:09.050Z,88.57
2023-05-19T05:07:09.036Z,88.37
2023-05-19T05:08:09.041Z,88.27
2023-05-19T05:09:09.022Z,88.98
2023-05-19T05:10:09.002Z,88.98
2023-05-19T05:11:08.998Z,89.09
2023-05-19T05:12:08.973Z,88.84
2023-05-19T05:13:11.138Z,88.43
2023-05-19T05:14:08.946Z,88.06
2023-05-19T05:15:08.925Z,88.33
2023-05-19T05:16:08.975Z,88.94
2023-05-19T05:17:08.898Z,88.53
2023-05-19T05:18:08.952Z,89.15
2023-05-19T05:19:08.948Z,88.84
2023-05-19T05:20:08.873Z,88.23
2023-05-19T05:21:08.848Z,88.33
2023-05-19T05:22:08.862Z,88.59
2023-05-19T05:23:08.838Z,88.29
2023-05-19T05:24:08.824Z,88.08
2023-05-19T05:25:08.813Z,87.98
2023-05-19T05:26:08.789Z,87.88
2023-05-19T05:27:08.782Z,87.77
2023-05-19T05:28:08.761Z,87.98
2023-05-19T05:29:08.748Z,88.80
2023-05-19T05:30:08.740Z,87.77
2023-05-19T05:31:08.720Z,87.98
2023-05-19T05:32:08.800Z,87.57
2023-05-19T05:33:08.934Z,87.37
2023-05-19T05:34:08.692Z,87.53
2023-05-19T05:35:08.674Z,87.63
2023-05-19T05:36:08.669Z,86.91
2023-05-19T05:37:08.648Z,87.63
2023-05-19T05:38:08.646Z,87.43
2023-05-19T05:39:08.610Z,86.40
2023-05-19T05:40:08.625Z,86.10
2023-05-19T05:41:08.601Z,86.67
2023-05-19T05:42:08.592Z,86.46
2023-05-19T05:43:08.608Z,85.85
2023-05-19T05:44:08.584Z,85.96
2023-05-19T05:45:08.544Z,85.85
2023-05-19T05:46:08.607Z,86.36
2023-05-19T05:47:08.524Z,86.02
2023-05-19T05:48:08.573Z,85.30
2023-05-19T05:49:08.489Z,85.20
2023-05-19T05:50:08.485Z,85.10
2023-05-19T05:51:08.593Z,85.16
2023-05-19T05:52:08.448Z,83.62
2023-05-19T05:53:08.429Z,83.62
2023-05-19T05:54:08.414Z,83.73
2023-05-19T05:55:08.441Z,84.09
2023-05-19T05:56:08.378Z,83.18
2023-05-19T05:57:08.374Z,82.97
2023-05-19T05:58:08.361Z,82.77
2023-05-19T05:59:08.376Z,82.05
2023-05-19T06:00:08.340Z,82.12
2023-05-19T06:01:08.330Z,81.20
2023-05-19T06:02:08.340Z,81.10
2023-05-19T06:03:08.414Z,81.30
2023-05-19T06:04:08.408Z,82.22
2023-05-19T06:05:18.028Z,81.77
2023-05-19T06:06:08.257Z,82.18
2023-05-19T06:07:08.249Z,80.24
2023-05-19T06:08:08.256Z,80.55
2023-05-19T06:09:08.235Z,79.73
2023-05-19T06:10:08.214Z,80.85
2023-05-19T06:11:08.272Z,80.51
2023-05-19T06:12:08.205Z,80.30
2023-05-19T06:13:08.175Z,80.47
2023-05-19T06:14:08.162Z,78.53
2023-05-19T06:15:08.137Z,78.70
2023-05-19T06:16:08.205Z,78.09
2023-05-19T06:17:08.138Z,78.60
2023-05-19T06:18:08.156Z,78.19
2023-05-19T06:19:08.161Z,77.85
2023-05-19T06:20:08.089Z,77.34
2023-05-19T06:21:08.064Z,77.55
2023-05-19T06:22:08.035Z,77.03
2023-05-19T06:23:08.047Z,78.05
2023-05-19T06:24:08.020Z,77.75
2023-05-19T06:25:08.093Z,76.62
2023-05-19T06:26:07.993Z,76.69
2023-05-19T06:27:07.986Z,76.28
2023-05-19T06:28:07.979Z,76.15
2023-05-19T06:29:07.956Z,75.40
2023-05-19T06:30:07.949Z,74.96
2023-05-19T06:31:07.998Z,75.57
2023-05-19T06:32:07.928Z,72.11
2023-05-19T06:33:07.969Z,72.11
2023-05-19T06:34:07.885Z,72.69
2023-05-19T06:35:07.881Z,72.28
2023-05-19T06:36:07.853Z,72.08
2023-05-19T06:37:15.890Z,72.89
2023-05-19T06:38:14.847Z,73.60
2023-05-19T06:39:14.846Z,74.58
2023-05-19T06:40:15.312Z,72.62
2023-05-19T06:41:07.817Z,71.47
2023-05-19T06:42:07.831Z,69.74
2023-05-19T06:43:07.786Z,71.16
2023-05-19T06:44:07.759Z,71.26
2023-05-19T06:45:07.750Z,69.91
2023-05-19T06:46:07.741Z,71.03
2023-05-19T06:47:07.860Z,70.83
2023-05-19T06:48:07.751Z,70.89
2023-05-19T06:49:07.700Z,72.01
2023-05-19T06:50:07.672Z,69.64
2023-05-19T06:51:07.692Z,69.31
2023-05-19T06:52:07.677Z,69.20
2023-05-19T06:53:07.639Z,71.00
2023-05-19T06:54:07.626Z,66.64
2023-05-19T06:55:07.624Z,66.64
2023-05-19T06:56:07.685Z,69.07
2023-05-19T06:57:07.581Z,67.25
2023-05-19T06:58:07.983Z,66.77
2023-05-19T06:59:07.558Z,68.90
2023-05-19T07:00:07.569Z,66.91
2023-05-19T07:01:07.557Z,67.51
2023-05-19T07:02:07.628Z,69.44
2023-05-19T07:03:07.627Z,67.38
2023-05-19T07:04:07.689Z,67.25
2023-05-19T07:05:07.495Z,68.16
2023-05-19T07:06:08.492Z,66.81
2023-05-19T07:07:07.460Z,65.87
2023-05-19T07:08:07.439Z,66.24
2023-05-19T07:09:07.425Z,66.52
2023-05-19T07:10:07.453Z,64.97
2023-05-19T07:11:07.406Z,66.08
2023-05-19T07:12:07.381Z,64.23
2023-05-19T07:13:07.370Z,62.54
2023-05-19T07:14:07.363Z,66.04
2023-05-19T07:15:07.355Z,66.44
2023-05-19T07:16:07.334Z,65.10
2023-05-19T07:17:07.314Z,63.05
2023-05-19T07:18:07.372Z,64.56
2023-05-19T07:19:07.328Z,63.65
2023-05-19T07:20:07.275Z,64.59
2023-05-19T07:21:07.285Z,65.57
2023-05-19T07:22:07.252Z,64.87
2023-05-19T07:23:07.252Z,62.41
2023-05-19T07:24:07.246Z,63.42
2023-05-19T07:25:07.222Z,65.01
2023-05-19T07:26:07.211Z,64.30
2023-05-19T07:27:07.193Z,64.10
2023-05-19T07:28:07.183Z,62.28
2023-05-19T07:29:07.169Z,64.78
2023-05-19T07:30:07.168Z,62.96
2023-05-19T07:31:07.155Z,61.65
2023-05-19T07:32:07.126Z,61.60
2023-05-19T07:33:07.205Z,64.94
2023-05-19T07:34:07.090Z,64.53
2023-05-19T07:35:07.079Z,64.10
2023-05-19T07:36:07.080Z,63.90
2023-05-19T07:37:07.051Z,65.68
2023-05-19T07:38:07.054Z,64.67
2023-05-19T07:39:07.077Z,63.03
2023-05-19T07:40:07.024Z,61.21
2023-05-19T07:41:07.030Z,63.32
2023-05-19T07:42:07.001Z,63.59
2023-05-19T07:43:06.990Z,64.37
2023-05-19T07:44:06.955Z,63.96
2023-05-19T07:45:06.943Z,65.05
2023-05-19T07:46:06.969Z,63.90
2023-05-19T07:47:06.932Z,64.78
2023-05-19T07:48:06.932Z,60.55
2023-05-19T07:49:06.895Z,62.64
2023-05-19T07:50:06.877Z,59.64
2023-05-19T07:51:06.869Z,58.97
2023-05-19T07:52:06.882Z,62.40
2023-05-19T07:53:06.831Z,61.39
2023-05-19T07:54:06.815Z,59.47
2023-05-19T07:55:06.816Z,60.78
2023-05-19T07:56:06.783Z,64.58
2023-05-19T07:57:06.817Z,62.87
2023-05-19T07:58:06.770Z,59.62
2023-05-19T07:59:06.757Z,60.39
2023-05-19T08:00:06.743Z,59.89
2023-05-19T08:01:06.743Z,58.38
2023-05-19T08:02:06.755Z,58.65
2023-05-19T08:03:06.866Z,56.95
2023-05-19T08:04:06.762Z,56.64
2023-05-19T08:05:06.687Z,57.75
2023-05-19T08:06:06.692Z,59.23
2023-05-19T08:07:06.669Z,56.92
2023-05-19T08:08:06.626Z,56.51
2023-05-19T08:09:06.615Z,55.46
2023-05-19T08:10:06.622Z,56.97
2023-05-19T08:11:06.641Z,58.18
2023-05-19T08:12:06.587Z,57.15
2023-05-19T08:13:06.572Z,55.74
2023-05-19T08:14:06.552Z,56.11
2023-05-19T08:15:06.562Z,56.51
2023-05-19T08:16:06.601Z,54.38
2023-05-19T08:17:06.544Z,56.09
2023-05-19T08:18:06.564Z,58.90
2023-05-19T08:19:06.515Z,54.88
2023-05-19T08:20:06.499Z,54.28
2023-05-19T08:21:06.468Z,54.48
2023-05-19T08:22:06.443Z,55.79
2023-05-19T08:23:06.468Z,56.59
2023-05-19T08:24:06.516Z,54.15
2023-05-19T08:25:06.421Z,55.16
2023-05-19T08:26:06.408Z,53.65
2023-05-19T08:27:06.391Z,54.78
2023-05-19T08:28:06.385Z,57.90
2023-05-19T08:29:06.365Z,56.36
2023-05-19T08:30:15.050Z,56.06
2023-05-19T08:31:06.387Z,55.73
2023-05-19T08:32:06.329Z,54.60
2023-05-19T08:33:06.393Z,56.51
2023-05-19T08:34:06.306Z,54.58
2023-05-19T08:35:06.276Z,54.77
2023-05-19T08:36:06.288Z,55.65
2023-05-19T08:37:06.261Z,57.43
2023-05-19T08:38:06.255Z,56.13
2023-05-19T08:39:06.265Z,53.80
2023-05-19T08:40:06.223Z,52.22
2023-05-19T08:41:06.279Z,53.72
2023-05-19T08:42:06.184Z,52.42
2023-05-19T08:43:06.285Z,53.45
2023-05-19T08:44:06.202Z,54.58
2023-05-19T08:45:06.265Z,56.78
2023-05-19T08:46:06.221Z,53.75
2023-05-19T08:47:06.271Z,51.06
2023-05-19T08:48:06.278Z,50.76
2023-05-19T08:49:06.178Z,50.86
2023-05-19T08:50:06.075Z,50.11
2023-05-19T08:51:06.074Z,54.83
2023-05-19T08:52:06.045Z,55.20
2023-05-19T08:53:06.070Z,53.39
2023-05-19T08:54:06.024Z,53.30
2023-05-19T08:55:06.050Z,54.30
2023-05-19T08:56:05.990Z,53.17
2023-05-19T08:57:06.016Z,53.55
2023-05-19T08:58:05.976Z,52.34
2023-05-19T08:59:05.951Z,50.84
2023-05-19T09:00:05.938Z,54.02
2023-05-19T09:01:05.969Z,52.80
2023-05-19T09:02:05.923Z,52.09
2023-05-19T09:03:17.526Z,51.19
2023-05-19T09:04:07.070Z,50.26
2023-05-19T09:05:05.914Z,52.04
2023-05-19T09:06:05.887Z,51.64
2023-05-19T09:07:05.862Z,51.24
2023-05-19T09:08:05.833Z,51.46
2023-05-19T09:09:05.823Z,51.17
2023-05-19T09:10:05.819Z,50.26
2023-05-19T09:11:05.810Z,52.97
2023-05-19T09:12:05.795Z,51.54
2023-05-19T09:13:05.779Z,50.96
2023-05-19T09:14:05.790Z,53.05
2023-05-19T09:15:05.748Z,49.71
2023-05-19T09:16:05.787Z,52.32
2023-05-19T09:17:06.010Z,50.39
2023-05-19T09:18:05.718Z,49.79
2023-05-19T09:19:05.735Z,48.51
2023-05-19T09:20:05.682Z,48.51
2023-05-19T09:21:05.681Z,50.71
2023-05-19T09:22:05.649Z,49.39
2023-05-19T09:23:05.648Z,50.62
2023-05-19T09:24:05.616Z,48.38
2023-05-19T09:25:05.646Z,49.39
2023-05-19T09:26:05.614Z,47.91
2023-05-19T09:27:05.585Z,48.43
2023-05-19T09:28:05.569Z,49.18
2023-05-19T09:29:05.554Z,50.43
2023-05-19T09:30:05.569Z,53.39
2023-05-19T09:31:05.527Z,51.06
2023-05-19T09:32:05.590Z,50.54
2023-05-19T09:33:05.635Z,50.16
2023-05-19T09:34:05.487Z,52.37
2023-05-19T09:35:05.488Z,51.24
2023-05-19T09:36:05.459Z,50.44
2023-05-19T09:37:05.456Z,49.54
2023-05-19T09:38:05.433Z,50.74
2023-05-19T09:39:05.427Z,51.94
2023-05-19T09:40:05.429Z,51.76
2023-05-19T09:41:05.398Z,50.76
2023-05-19T09:42:05.388Z,51.21
2023-05-19T09:43:05.368Z,50.13
2023-05-19T09:44:05.375Z,51.54
2023-05-19T09:45:05.353Z,51.54
2023-05-19T09:46:05.351Z,49.91
2023-05-19T09:47:05.320Z,49.48
2023-05-19T09:48:05.438Z,48.18
2023-05-19T09:49:05.316Z,50.29
2023-05-19T09:50:05.279Z,50.66
2023-05-19T09:51:05.282Z,48.23
2023-05-19T09:52:05.256Z,48.86
2023-05-19T09:53:05.240Z,49.58
2023-05-19T09:54:05.228Z,49.16
2023-05-19T09:55:05.216Z,49.30
2023-05-19T09:56:05.203Z,50.61
2023-05-19T09:57:07.094Z,50.01
2023-05-19T09:58:05.185Z,49.93
2023-05-19T09:59:05.177Z,52.04
2023-05-19T10:00:05.153Z,51.34
2023-05-19T10:01:05.633Z,52.24
2023-05-19T10:02:05.121Z,51.06
2023-05-19T10:03:05.177Z,50.18
2023-05-19T10:04:06.025Z,52.39
2023-05-19T10:05:05.099Z,52.49
2023-05-19T10:06:05.101Z,51.06
2023-05-19T10:07:05.049Z,51.42
2023-05-19T10:08:05.058Z,52.80
2023-05-19T10:09:05.017Z,51.79
2023-05-19T10:10:05.030Z,50.68
2023-05-19T10:11:05.002Z,52.26
2023-05-19T10:12:05.028Z,52.14
2023-05-19T10:13:04.986Z,49.11
2023-05-19T10:14:04.960Z,48.55
2023-05-19T10:15:04.953Z,48.78
2023-05-19T10:16:04.957Z,50.31
2023-05-19T10:17:05.079Z,50.05
2023-05-19T10:18:04.988Z,50.68
2023-05-19T10:19:04.939Z,51.29
2023-05-19T10:20:04.991Z,52.59
2023-05-19T10:21:04.880Z,53.05
2023-05-19T10:22:04.883Z,50.18
2023-05-19T10:23:04.836Z,48.93
2023-05-19T10:24:04.826Z,52.37
2023-05-19T10:25:04.816Z,53.55
2023-05-19T10:26:04.829Z,50.79
2023-05-19T10:27:04.807Z,45.29
2023-05-19T10:28:04.781Z,43.49
2023-05-19T10:29:04.761Z,44.71
2023-05-19T10:30:04.811Z,47.30
2023-05-19T10:31:04.765Z,46.37
2023-05-19T10:32:04.752Z,44.47
2023-05-19T10:33:04.815Z,45.54
2023-05-19T10:34:04.717Z,45.20
2023-05-19T10:35:04.677Z,46.37
2023-05-19T10:36:04.700Z,48.28
2023-05-19T10:37:04.664Z,47.05
2023-05-19T10:38:04.633Z,46.97
2023-05-19T10:39:04.625Z,48.68
2023-05-19T10:40:04.626Z,48.66
2023-05-19T10:41:04.615Z,47.73
2023-05-19T10:42:04.591Z,48.46
2023-05-19T10:43:04.567Z,48.35
2023-05-19T10:44:04.642Z,51.94
2023-05-19T10:45:04.556Z,49.49
2023-05-19T10:46:04.540Z,49.79
2023-05-19T10:47:04.608Z,47.96
2023-05-19T10:48:04.637Z,47.14
2023-05-19T10:49:04.498Z,45.56
2023-05-19T10:50:04.501Z,46.16
2023-05-19T10:51:04.464Z,49.54
2023-05-19T10:52:04.492Z,46.31
2023-05-19T10:53:04.455Z,45.69
2023-05-19T10:54:04.440Z,45.50
2023-05-19T10:55:04.440Z,45.67
2023-05-19T10:56:04.477Z,44.07
2023-05-19T10:57:04.406Z,44.75
2023-05-19T10:58:04.404Z,48.65
2023-05-19T10:59:04.362Z,45.77
2023-05-19T11:00:04.360Z,44.62
2023-05-19T11:01:04.330Z,46.26
2023-05-19T11:02:04.403Z,46.61
2023-05-19T11:03:04.360Z,48.33
2023-05-19T11:04:04.343Z,47.96
2023-05-19T11:05:04.295Z,49.36
2023-05-19T11:06:04.278Z,48.55
2023-05-19T11:07:04.265Z,48.11
2023-05-19T11:08:04.285Z,49.71
2023-05-19T11:09:04.260Z,48.28
2023-05-19T11:10:04.226Z,49.87
2023-05-19T11:11:04.213Z,49.24
2023-05-19T11:12:04.227Z,47.14
2023-05-19T11:13:06.366Z,47.44
2023-05-19T11:14:11.685Z,47.81
2023-05-19T11:15:04.158Z,47.07
2023-05-19T11:16:04.139Z,46.77
2023-05-19T11:17:04.259Z,47.77
2023-05-19T11:18:04.156Z,45.29
2023-05-19T11:19:04.145Z,47.09
2023-05-19T11:20:12.624Z,44.70
2023-05-19T11:21:11.608Z,45.09
2023-05-19T11:22:12.787Z,43.90
2023-05-19T11:23:13.014Z,43.07
2023-05-19T11:24:11.566Z,43.40
2023-05-19T11:25:04.034Z,44.49
2023-05-19T11:26:03.995Z,44.93
2023-05-19T11:27:04.006Z,45.46
2023-05-19T11:28:03.988Z,45.96
2023-05-19T11:29:03.966Z,46.96
2023-05-19T11:30:04.009Z,45.26
2023-05-19T11:31:03.936Z,44.35
2023-05-19T11:32:04.012Z,46.06
2023-05-19T11:33:03.932Z,45.06
2023-05-19T11:34:03.914Z,46.88
2023-05-19T11:35:03.891Z,45.28
2023-05-19T11:36:03.891Z,47.99
2023-05-19T11:37:03.873Z,46.68
2023-05-19T11:38:03.844Z,46.48
2023-05-19T11:39:03.857Z,45.16
2023-05-19T11:40:03.843Z,46.31
2023-05-19T11:41:03.840Z,43.59
2023-05-19T11:42:03.801Z,44.39
2023-05-19T11:43:03.772Z,42.25
2023-05-19T11:44:03.765Z,45.15
2023-05-19T11:45:03.798Z,42.33
2023-05-19T11:46:03.796Z,41.52
2023-05-19T11:47:03.747Z,40.04
2023-05-19T11:48:03.808Z,40.75
2023-05-19T11:49:03.720Z,41.27
2023-05-19T11:50:03.712Z,41.52
2023-05-19T11:51:03.694Z,42.83
2023-05-19T11:52:03.706Z,43.26
2023-05-19T11:53:03.649Z,43.05
2023-05-19T11:54:03.635Z,44.42
2023-05-19T11:55:03.637Z,43.77
2023-05-19T11:56:03.615Z,42.27
2023-05-19T11:57:03.605Z,41.24
2023-05-19T11:58:05.517Z,41.71
2023-05-19T11:59:03.579Z,41.91
2023-05-19T12:00:03.565Z,39.40
2023-05-19T12:01:03.551Z,39.78
2023-05-19T12:02:03.522Z,40.08
2023-05-19T12:03:03.579Z,44.07
2023-05-19T12:04:03.577Z,39.46
2023-05-19T12:05:03.535Z,39.24
2023-05-19T12:06:03.485Z,39.09
2023-05-19T12:07:03.453Z,41.11
2023-05-19T12:08:03.455Z,42.60
2023-05-19T12:09:03.436Z,42.97
2023-05-19T12:10:03.448Z,43.75
2023-05-19T12:11:03.425Z,44.31
2023-05-19T12:12:03.405Z,42.47
2023-05-19T12:13:03.376Z,39.16
2023-05-19T12:14:03.382Z,38.17
2023-05-19T12:15:03.356Z,37.98
2023-05-19T12:16:03.374Z,39.78
2023-05-19T12:17:03.471Z,43.57
2023-05-19T12:18:03.476Z,38.96
2023-05-19T12:19:03.352Z,40.04
2023-05-19T12:20:03.317Z,42.75
2023-05-19T12:21:03.310Z,39.90
2023-05-19T12:22:04.088Z,40.52
2023-05-19T12:23:03.284Z,41.05
2023-05-19T12:24:03.295Z,40.88
2023-05-19T12:25:03.228Z,41.19
2023-05-19T12:26:03.236Z,42.02
2023-05-19T12:27:03.202Z,42.93
2023-05-19T12:28:03.636Z,43.43
2023-05-19T12:29:03.190Z,43.26
2023-05-19T12:30:03.178Z,43.43
2023-05-19T12:31:03.167Z,42.54
2023-05-19T12:32:11.873Z,43.33
2023-05-19T12:33:12.105Z,42.33
2023-05-19T12:34:03.123Z,42.46
2023-05-19T12:35:03.120Z,42.35
2023-05-19T12:36:03.080Z,42.55
2023-05-19T12:37:03.106Z,42.38
2023-05-19T12:38:03.067Z,44.58
2023-05-19T12:39:03.082Z,42.77
2023-05-19T12:40:03.063Z,41.17
2023-05-19T12:41:03.038Z,41.46
2023-05-19T12:42:03.070Z,41.75
2023-05-19T12:43:03.120Z,41.55
2023-05-19T12:44:03.103Z,42.05
2023-05-19T12:45:03.384Z,42.66
2023-05-19T12:46:03.039Z,42.47
2023-05-19T12:47:02.958Z,42.40
2023-05-19T12:48:02.989Z,43.62
2023-05-19T12:49:02.958Z,44.42
2023-05-19T12:50:02.918Z,45.62
2023-05-19T12:51:02.926Z,44.20
2023-05-19T12:52:04.778Z,44.10